createdAt,value
2019-05-23T00:08:46.677Z,12.4
2019-05-23T00:18:45.893Z,12.9
2019-05-23T00:28:45.119Z,12.6
2019-05-23T00:38:44.332Z,12.7
2019-05-23T00:48:43.549Z,12.7
2019-05-23T00:58:42.776Z,12.5
2019-05-23T01:08:41.993Z,13
2019-05-23T01:18:41.205Z,12.7
2019-05-23T01:28:40.427Z,13.1
2019-05-23T01:38:39.642Z,12.7
2019-05-23T01:48:38.877Z,12.5
2019-05-23T01:58:38.089Z,13
2019-05-23T02:08:37.347Z,13.3
2019-05-23T02:18:36.516Z,12.7
2019-05-23T02:28:35.742Z,12.5
2019-05-23T02:38:34.953Z,13.2
2019-05-23T02:48:34.166Z,13
2019-05-23T02:58:33.383Z,12.7
2019-05-23T03:08:32.602Z,12.9
2019-05-23T03:18:34.491Z,12.3
2019-05-23T03:28:31.766Z,13.2
2019-05-23T03:38:30.984Z,13.7
2019-05-23T03:48:30.197Z,14.1
2019-05-23T03:58:29.419Z,14.4
2019-05-23T04:08:28.635Z,14.3
2019-05-23T04:18:27.861Z,14
2019-05-23T04:28:27.075Z,13.8
2019-05-23T04:38:26.302Z,14.2
2019-05-23T04:48:25.522Z,14.2
2019-05-23T04:58:24.743Z,14.4
2019-05-23T05:08:24.004Z,14.4
2019-05-23T05:18:23.184Z,14.3
2019-05-23T05:28:22.440Z,14
2019-05-23T05:38:21.609Z,14.3
2019-05-23T05:48:20.889Z,14.6
2019-05-23T05:58:20.099Z,13.8
2019-05-23T06:08:19.278Z,14.1
2019-05-23T06:18:18.488Z,14.5
2019-05-23T06:28:17.765Z,13.7
2019-05-23T06:38:16.992Z,14.4
2019-05-23T06:48:16.197Z,14.2
2019-05-23T06:58:15.389Z,14.2
2019-05-23T07:08:14.603Z,14.6
2019-05-23T07:18:13.820Z,14.3
2019-05-23T07:28:13.052Z,14.5
2019-05-23T07:38:12.269Z,14.4
2019-05-23T07:48:11.511Z,14.8
2019-05-23T07:58:13.528Z,14.5
2019-05-23T08:08:10.169Z,14.6
2019-05-23T08:18:09.154Z,14.3
2019-05-23T08:28:08.383Z,14.4
2019-05-23T08:38:07.608Z,14.7
2019-05-23T08:48:06.830Z,13.9
2019-05-23T08:58:06.108Z,14.7
2019-05-23T09:08:05.279Z,14.7
2019-05-23T09:18:04.505Z,14.1
2019-05-23T09:28:03.781Z,13.8
2019-05-23T09:38:03.017Z,13.9
2019-05-23T09:48:02.205Z,13.8
2019-05-23T09:58:01.430Z,13.8
2019-05-23T10:08:00.718Z,14.1
2019-05-23T10:18:00.823Z,14.4
2019-05-23T10:27:59.127Z,14
2019-05-23T10:37:58.366Z,14.2
2019-05-23T10:47:57.648Z,13.5
2019-05-23T10:57:56.825Z,14.7
2019-05-23T11:07:56.100Z,14.1
2019-05-23T11:17:55.274Z,14.4
2019-05-23T11:27:54.499Z,14.1
2019-05-23T11:37:53.751Z,14.2
2019-05-23T11:47:53.009Z,14.5
2019-05-23T11:57:52.180Z,14.2
2019-05-23T12:07:51.429Z,14.4
2019-05-23T12:17:50.689Z,13.8
2019-05-23T12:27:49.914Z,14
2019-05-23T12:37:49.074Z,14
2019-05-23T12:47:48.306Z,14.1
2019-05-23T12:57:47.523Z,13.8
2019-05-23T13:07:46.756Z,14.4
2019-05-23T13:17:45.961Z,14.2
2019-05-23T13:27:45.188Z,14.1
2019-05-23T13:37:53.409Z,14.4
2019-05-23T13:47:43.633Z,14.7
2019-05-23T13:57:42.856Z,14.4
2019-05-23T14:07:42.080Z,14.3
2019-05-23T14:17:41.358Z,14.4
2019-05-23T14:27:40.546Z,14.3
